createdAt,value
2022-11-19T00:00:50.915Z,97651.34
2022-11-19T00:03:20.165Z,97659.28
2022-11-19T00:05:48.899Z,97656.34
2022-11-19T00:08:17.977Z,97661.59
2022-11-19T00:10:45.765Z,97660.50
2022-11-19T00:13:13.312Z,97670.22
2022-11-19T00:15:40.672Z,97669.69
2022-11-19T00:18:07.893Z,97674.28
2022-11-19T00:20:35.368Z,97676.59
2022-11-19T00:23:02.574Z,97675.09
2022-11-19T00:25:30.961Z,97671.03
2022-11-19T00:27:58.115Z,97671.03
2022-11-19T00:30:46.855Z,97671.56
2022-11-19T00:33:11.074Z,97679.31
2022-11-19T00:35:37.663Z,97678.47
2022-11-19T00:38:04.145Z,97685.34
2022-11-19T00:40:30.689Z,97672.66
2022-11-19T00:43:15.812Z,97681.47
2022-11-19T00:45:44.486Z,97676.06
2022-11-19T00:48:11.035Z,97679.84
2022-11-19T00:50:37.685Z,97689.81
2022-11-19T00:53:04.174Z,97683.03
2022-11-19T00:55:30.651Z,97688.81
2022-11-19T00:57:57.037Z,97689.38
2022-11-19T01:00:23.491Z,97690.00
2022-11-19T01:02:49.955Z,97687.84
2022-11-19T01:05:16.928Z,97690.84
2022-11-19T01:07:43.329Z,97689.66
2022-11-19T01:10:10.057Z,97688.81
2022-11-19T01:12:56.459Z,97697.09
2022-11-19T01:15:22.848Z,97695.56
2022-11-19T01:17:49.239Z,97703.22
2022-11-19T01:20:15.968Z,97712.44
2022-11-19T01:22:42.629Z,97719.28
2022-11-19T01:25:09.509Z,97720.81
2022-11-19T01:27:35.883Z,97717.59
2022-11-19T01:30:02.338Z,97718.69
2022-11-19T01:32:28.759Z,97716.69
2022-11-19T01:34:55.186Z,97712.34
2022-11-19T01:37:21.641Z,97708.41
2022-11-19T01:39:48.101Z,97714.22
2022-11-19T01:42:46.727Z,97712.16
2022-11-19T01:45:21.825Z,97711.72
2022-11-19T01:47:48.429Z,97709.72
2022-11-19T01:50:15.062Z,97713.75
2022-11-19T01:52:41.600Z,97714.34
2022-11-19T01:55:09.680Z,97716.28
2022-11-19T01:57:39.793Z,97710.31
2022-11-19T02:00:08.080Z,97716.47
2022-11-19T02:02:34.770Z,97716.88
2022-11-19T02:05:02.884Z,97722.47
2022-11-19T02:07:33.708Z,97730.72
2022-11-19T02:10:02.737Z,97730.78
2022-11-19T02:12:41.157Z,97737.69
2022-11-19T02:15:22.710Z,97739.38
2022-11-19T02:18:20.711Z,97738.53
2022-11-19T02:21:01.003Z,97735.28
2022-11-19T02:23:46.535Z,97744.22
2022-11-19T02:26:25.267Z,97748.94
2022-11-19T02:29:27.122Z,97749.06
2022-11-19T02:32:01.937Z,97745.69
2022-11-19T02:34:32.272Z,97746.31
2022-11-19T02:37:21.422Z,97748.72
2022-11-19T02:40:05.452Z,97746.09
2022-11-19T02:42:50.607Z,97750.41
2022-11-19T02:45:35.561Z,97752.06
2022-11-19T02:48:18.167Z,97755.66
2022-11-19T02:50:57.413Z,97749.22
2022-11-19T02:53:24.131Z,97756.03
2022-11-19T02:56:09.170Z,97757.25
2022-11-19T02:58:57.395Z,97756.50
2022-11-19T03:01:44.944Z,97751.97
2022-11-19T03:04:30.978Z,97753.78
2022-11-19T03:07:02.097Z,97756.63
2022-11-19T03:09:31.120Z,97759.16
2022-11-19T03:12:18.003Z,97763.09
2022-11-19T03:15:37.907Z,97761.31
2022-11-19T03:18:16.964Z,97751.97
2022-11-19T03:21:15.531Z,97754.94
2022-11-19T03:23:48.354Z,97753.84
2022-11-19T03:26:29.867Z,97756.13
2022-11-19T03:29:01.807Z,97756.91
2022-11-19T03:31:30.354Z,97760.63
2022-11-19T03:34:01.595Z,97760.28
2022-11-19T03:36:35.856Z,97772.22
2022-11-19T03:39:08.336Z,97760.13
2022-11-19T03:41:37.690Z,97764.53
2022-11-19T03:44:17.008Z,97765.53
2022-11-19T03:46:47.354Z,97763.63
2022-11-19T03:49:15.509Z,97771.47
2022-11-19T03:51:48.576Z,97776.09
2022-11-19T03:54:16.458Z,97776.47
2022-11-19T03:56:45.017Z,97777.94
2022-11-19T03:59:12.935Z,97772.22
2022-11-19T04:01:39.913Z,97781.97
2022-11-19T04:04:24.796Z,97783.28
2022-11-19T04:06:51.394Z,97784.56
2022-11-19T04:09:17.955Z,97782.97
2022-11-19T04:14:10.927Z,97786.66
2022-11-19T04:16:37.406Z,97792.63
2022-11-19T04:19:03.877Z,97795.16
2022-11-19T04:21:30.442Z,97792.72
2022-11-19T04:23:56.808Z,97800.66
2022-11-19T04:26:23.280Z,97796.69
2022-11-19T04:28:49.737Z,97800.41
2022-11-19T04:31:17.978Z,97806.81
2022-11-19T04:33:44.844Z,97800.03
2022-11-19T04:36:11.270Z,97802.91
2022-11-19T04:38:37.701Z,97799.19
2022-11-19T04:41:04.243Z,97803.56
2022-11-19T04:43:30.872Z,97805.19
2022-11-19T04:45:57.359Z,97813.00
2022-11-19T04:48:23.845Z,97806.66
2022-11-19T04:50:50.252Z,97813.00
2022-11-19T04:53:16.839Z,97813.13
2022-11-19T04:55:43.233Z,97819.06
2022-11-19T04:58:10.114Z,97820.47
2022-11-19T05:00:36.601Z,97824.53
2022-11-19T05:03:03.427Z,97825.31
2022-11-19T05:05:32.879Z,97838.56
2022-11-19T05:07:59.276Z,97830.41
2022-11-19T05:10:25.753Z,97829.25
2022-11-19T05:12:52.201Z,97827.47
2022-11-19T05:15:18.733Z,97828.38
2022-11-19T05:17:45.651Z,97835.16
2022-11-19T05:20:12.299Z,97831.13
2022-11-19T05:22:38.664Z,97833.44
2022-11-19T05:25:05.666Z,97834.38
2022-11-19T05:27:32.253Z,97836.06
2022-11-19T05:29:58.737Z,97840.81
2022-11-19T05:32:25.105Z,97845.41
2022-11-19T05:34:51.689Z,97846.31
2022-11-19T05:37:18.094Z,97849.41
2022-11-19T05:39:44.584Z,97846.56
2022-11-19T05:42:11.013Z,97849.81
2022-11-19T05:44:37.440Z,97850.25
2022-11-19T05:47:03.955Z,97849.19
2022-11-19T05:49:30.422Z,97841.69
2022-11-19T05:51:56.929Z,97848.88
2022-11-19T05:54:23.417Z,97843.69
2022-11-19T05:56:49.874Z,97852.31
2022-11-19T05:59:16.359Z,97851.41
2022-11-19T06:01:42.754Z,97855.31
2022-11-19T06:04:10.635Z,97857.84
2022-11-19T06:06:37.282Z,97857.50
2022-11-19T06:09:04.354Z,97862.13
2022-11-19T06:11:50.137Z,97866.56
2022-11-19T06:14:22.815Z,97862.72
2022-11-19T06:17:00.202Z,97870.47
2022-11-19T06:19:27.136Z,97863.88
2022-11-19T06:21:53.877Z,97861.69
2022-11-19T06:24:20.794Z,97864.06
2022-11-19T06:26:47.320Z,97871.41
2022-11-19T06:29:15.531Z,97865.97
2022-11-19T06:31:42.041Z,97872.88
2022-11-19T06:34:09.425Z,97876.56
2022-11-19T06:36:40.958Z,97874.28
2022-11-19T06:39:09.586Z,97876.06
2022-11-19T06:41:36.377Z,97870.97
2022-11-19T06:44:03.218Z,97883.59
2022-11-19T06:46:30.118Z,97879.94
2022-11-19T06:48:56.494Z,97887.19
2022-11-19T06:51:22.892Z,97887.97
2022-11-19T06:53:49.294Z,97888.75
2022-11-19T06:56:15.731Z,97893.47
2022-11-19T06:58:42.123Z,97890.88
2022-11-19T07:01:08.566Z,97890.53
2022-11-19T07:03:35.867Z,97894.59
2022-11-19T07:06:04.228Z,97893.44
2022-11-19T07:08:34.418Z,97903.44
2022-11-19T07:11:01.309Z,97898.41
2022-11-19T07:13:47.674Z,97903.88
2022-11-19T07:16:14.073Z,97911.75
2022-11-19T07:18:40.565Z,97915.31
2022-11-19T07:21:06.959Z,97924.22
2022-11-19T07:23:33.368Z,97914.16
2022-11-19T07:26:03.083Z,97914.84
2022-11-19T07:28:29.565Z,97917.69
2022-11-19T07:30:56.093Z,97920.97
2022-11-19T07:33:22.736Z,97924.41
2022-11-19T07:35:49.175Z,97923.19
2022-11-19T07:38:15.621Z,97927.88
2022-11-19T07:40:41.998Z,97927.34
2022-11-19T07:43:08.429Z,97922.94
2022-11-19T07:45:37.840Z,97931.84
2022-11-19T07:48:04.353Z,97925.34
2022-11-19T07:50:30.775Z,97937.00
2022-11-19T07:53:00.499Z,97933.22
2022-11-19T07:55:26.925Z,97936.47
2022-11-19T07:57:54.073Z,97934.50
2022-11-19T08:00:20.622Z,97938.03
2022-11-19T08:02:47.124Z,97943.53
2022-11-19T08:05:13.578Z,97941.81
2022-11-19T08:07:40.064Z,97939.19
2022-11-19T08:10:07.232Z,97946.53
2022-11-19T08:12:33.776Z,97955.47
2022-11-19T08:15:00.135Z,97948.03
2022-11-19T08:17:45.333Z,97949.75
2022-11-19T08:20:12.047Z,97953.72
2022-11-19T08:22:40.564Z,97951.94
2022-11-19T08:25:07.210Z,97954.44
2022-11-19T08:27:34.726Z,97955.53
2022-11-19T08:30:01.275Z,97958.59
2022-11-19T08:32:36.201Z,97958.69
2022-11-19T08:35:02.645Z,97966.03
2022-11-19T08:37:29.084Z,97964.47
2022-11-19T08:39:55.502Z,97954.59
2022-11-19T08:42:40.558Z,97964.97
2022-11-19T08:45:07.639Z,97968.78
2022-11-19T08:47:34.039Z,97972.41
2022-11-19T08:50:00.489Z,97980.41
2022-11-19T08:52:26.954Z,97973.28
2022-11-19T08:54:53.558Z,97977.56
2022-11-19T08:57:19.943Z,97985.13
2022-11-19T08:59:46.396Z,97986.63
2022-11-19T09:02:12.835Z,97983.31
2022-11-19T09:04:39.278Z,97981.13
2022-11-19T09:07:05.710Z,97982.91
2022-11-19T09:09:32.692Z,97992.47
2022-11-19T09:11:59.135Z,98002.72
2022-11-19T09:14:25.646Z,98001.78
2022-11-19T09:16:52.275Z,97999.78
2022-11-19T09:19:18.824Z,97994.84
2022-11-19T09:21:45.406Z,97996.00
2022-11-19T09:24:11.827Z,97994.75
2022-11-19T09:26:38.301Z,97993.09
2022-11-19T09:29:04.703Z,97991.09
2022-11-19T09:31:31.255Z,97998.53
2022-11-19T09:33:57.768Z,98000.34
2022-11-19T09:36:24.221Z,98000.25
2022-11-19T09:38:50.760Z,98007.69
2022-11-19T09:41:41.159Z,98012.19
2022-11-19T09:44:23.484Z,98012.66
2022-11-19T09:46:56.046Z,98017.41
2022-11-19T09:49:31.050Z,98016.06
2022-11-19T09:52:04.416Z,98016.56
2022-11-19T09:54:31.802Z,98017.06
2022-11-19T09:57:09.034Z,98018.31
2022-11-19T09:59:39.025Z,98014.13
2022-11-19T10:02:19.877Z,98009.06
2022-11-19T10:04:47.995Z,98018.16
2022-11-19T10:07:45.133Z,98026.75
2022-11-19T10:10:36.267Z,98028.91
2022-11-19T10:13:14.922Z,98022.88
2022-11-19T10:16:17.091Z,98028.22
2022-11-19T10:19:08.258Z,98032.41
2022-11-19T10:22:00.039Z,98028.94
2022-11-19T10:24:41.747Z,98027.06
2022-11-19T10:27:32.033Z,98038.00
2022-11-19T10:30:02.623Z,98031.72
2022-11-19T10:32:37.724Z,98037.56
2022-11-19T10:35:15.179Z,98036.72
2022-11-19T10:38:05.071Z,98035.91
2022-11-19T10:40:49.029Z,98024.78
2022-11-19T10:43:51.932Z,98026.47
2022-11-19T10:46:24.288Z,98022.78
2022-11-19T10:48:54.888Z,98038.72
2022-11-19T10:51:28.506Z,98035.22
2022-11-19T10:53:56.363Z,98036.00
2022-11-19T10:56:38.927Z,98034.19
2022-11-19T10:59:16.510Z,98042.75
2022-11-19T11:01:45.602Z,98033.22
2022-11-19T11:04:23.879Z,98032.56
2022-11-19T11:06:58.415Z,98037.94
2022-11-19T11:09:28.708Z,98032.56
2022-11-19T11:12:13.884Z,98023.13
2022-11-19T11:14:51.984Z,98026.50
2022-11-19T11:17:30.447Z,98020.41
2022-11-19T11:19:58.456Z,98027.19
2022-11-19T11:22:26.134Z,98015.28
2022-11-19T11:24:52.813Z,98017.41
2022-11-19T11:27:33.203Z,98014.53
2022-11-19T11:30:11.698Z,98013.38
2022-11-19T11:32:40.132Z,98021.84
2022-11-19T11:35:27.082Z,98020.06
2022-11-19T11:37:53.707Z,98017.44
2022-11-19T11:40:23.927Z,98011.88
2022-11-19T11:42:52.932Z,98020.91
2022-11-19T11:45:26.323Z,98019.16
2022-11-19T11:47:52.832Z,98026.09
2022-11-19T11:50:24.585Z,98016.63
2022-11-19T11:52:53.939Z,98020.16
2022-11-19T11:55:23.074Z,98015.13
2022-11-19T11:57:55.322Z,98013.09
2022-11-19T12:00:36.914Z,98004.94
2022-11-19T12:03:20.350Z,98001.41
2022-11-19T12:06:15.388Z,98008.06
2022-11-19T12:09:05.687Z,98009.13
2022-11-19T12:12:00.783Z,98005.97
2022-11-19T12:14:37.098Z,98007.56
2022-11-19T12:17:13.061Z,98006.50
2022-11-19T12:19:54.659Z,98016.13
2022-11-19T12:22:48.583Z,98011.25
2022-11-19T12:25:36.492Z,98016.47
2022-11-19T12:28:05.611Z,98019.25
2022-11-19T12:30:57.896Z,98020.59
2022-11-19T12:33:27.291Z,98021.38
2022-11-19T12:36:07.858Z,98015.47
2022-11-19T12:38:40.272Z,98016.63
2022-11-19T12:41:34.521Z,98031.59
2022-11-19T12:44:10.927Z,98037.81
2022-11-19T12:46:50.235Z,98045.38
2022-11-19T12:49:45.828Z,98033.91
2022-11-19T12:52:24.563Z,98031.41
2022-11-19T12:55:24.627Z,98029.31
2022-11-19T12:58:01.975Z,98015.53
2022-11-19T13:00:30.254Z,98024.44
2022-11-19T13:03:08.974Z,98019.09
2022-11-19T13:05:38.419Z,98011.31
2022-11-19T13:08:23.641Z,98015.81
2022-11-19T13:11:17.520Z,98007.72
2022-11-19T13:13:48.813Z,98006.09
2022-11-19T13:16:18.297Z,98007.47
2022-11-19T13:18:48.498Z,98004.97
2022-11-19T13:21:38.928Z,98015.03
2022-11-19T13:24:29.556Z,98028.00
2022-11-19T13:27:00.791Z,98022.09
2022-11-19T13:29:40.945Z,98023.78
2022-11-19T13:32:16.689Z,98019.19
2022-11-19T13:34:47.376Z,98023.53
2022-11-19T13:37:31.866Z,98034.69
2022-11-19T13:40:13.352Z,98030.50
2022-11-19T13:43:17.581Z,98013.53
2022-11-19T13:45:53.603Z,98022.50
2022-11-19T13:48:24.193Z,98025.25
2022-11-19T13:50:53.534Z,98031.78
2022-11-19T13:53:34.835Z,98030.56
2022-11-19T13:56:02.043Z,98033.97
2022-11-19T13:58:44.113Z,98029.31
2022-11-19T14:01:28.215Z,98022.50
2022-11-19T14:04:03.363Z,98027.63
2022-11-19T14:06:29.776Z,98027.94
2022-11-19T14:09:02.103Z,98032.72
2022-11-19T14:11:56.141Z,98033.75
2022-11-19T14:15:02.178Z,98027.81
2022-11-19T14:18:08.118Z,98040.13
2022-11-19T14:21:03.765Z,98033.50
2022-11-19T14:24:08.083Z,98029.19
2022-11-19T14:26:40.373Z,98023.38
2022-11-19T14:29:27.113Z,98036.09
2022-11-19T14:32:06.163Z,98035.88
2022-11-19T14:34:38.759Z,98042.28
2022-11-19T14:37:28.335Z,98033.75
2022-11-19T14:40:00.444Z,98053.41
2022-11-19T14:42:26.929Z,98052.59
2022-11-19T14:45:05.378Z,98049.56
2022-11-19T14:47:37.386Z,98047.03
2022-11-19T14:50:08.570Z,98048.06
2022-11-19T14:52:51.527Z,98043.16
2022-11-19T14:55:24.760Z,98045.16
2022-11-19T14:58:03.687Z,98044.34
2022-11-19T15:00:38.943Z,98044.34
2022-11-19T15:03:12.547Z,98037.81
2022-11-19T15:05:42.699Z,98044.88
2022-11-19T15:08:18.056Z,98054.63
2022-11-19T15:11:09.564Z,98053.06
2022-11-19T15:13:41.235Z,98056.09
2022-11-19T15:16:20.954Z,98056.75
2022-11-19T15:19:05.390Z,98052.09
2022-11-19T15:21:52.289Z,98058.63
2022-11-19T15:24:40.187Z,98063.44
2022-11-19T15:27:37.021Z,98060.75
2022-11-19T15:30:19.512Z,98060.75
2022-11-19T15:32:59.495Z,98059.25
2022-11-19T15:36:03.128Z,98064.63
2022-11-19T15:38:37.623Z,98060.50
2022-11-19T15:41:06.081Z,98064.72
2022-11-19T15:43:43.400Z,98057.25
2022-11-19T15:46:14.225Z,98054.31
2022-11-19T15:49:19.558Z,98054.31
2022-11-19T15:52:06.109Z,98062.84
2022-11-19T15:54:34.463Z,98073.22
2022-11-19T15:57:04.147Z,98068.63
2022-11-19T15:59:35.042Z,98073.88
2022-11-19T16:02:15.251Z,98066.63
2022-11-19T16:04:41.895Z,98076.06
2022-11-19T16:07:09.993Z,98076.69
2022-11-19T16:09:37.681Z,98070.28
2022-11-19T16:12:22.752Z,98075.22
2022-11-19T16:15:09.613Z,98072.50
2022-11-19T16:17:47.277Z,98082.91
2022-11-19T16:20:20.820Z,98082.78
2022-11-19T16:22:59.768Z,98081.63
2022-11-19T16:25:32.908Z,98079.97
2022-11-19T16:28:07.947Z,98086.78
2022-11-19T16:31:01.886Z,98087.50
2022-11-19T16:33:30.663Z,98080.38
2022-11-19T16:36:15.429Z,98077.41
2022-11-19T16:38:46.021Z,98077.41
2022-11-19T16:41:32.345Z,98078.16
2022-11-19T16:43:59.233Z,98075.63
2022-11-19T16:46:28.484Z,98068.59
2022-11-19T16:48:57.949Z,98067.13
2022-11-19T16:51:26.109Z,98066.91
2022-11-19T16:53:52.793Z,98074.19
2022-11-19T16:56:19.739Z,98073.94
2022-11-19T16:58:46.574Z,98070.78
2022-11-19T17:01:17.762Z,98068.09
2022-11-19T17:03:45.059Z,98068.56
2022-11-19T17:06:24.651Z,98075.19
2022-11-19T17:08:57.350Z,98079.69
2022-11-19T17:11:57.770Z,98080.25
2022-11-19T17:14:30.206Z,98077.25
2022-11-19T17:16:57.096Z,98089.13
2022-11-19T17:19:27.287Z,98077.91
2022-11-19T17:22:00.448Z,98085.34
2022-11-19T17:24:43.205Z,98083.88
2022-11-19T17:27:31.056Z,98089.50
2022-11-19T17:30:19.517Z,98089.50
2022-11-19T17:38:27.592Z,98086.22
2022-11-19T17:40:56.803Z,98087.88
2022-11-19T17:43:49.206Z,98089.91
2022-11-19T17:46:15.670Z,98091.94
2022-11-19T17:48:44.368Z,98091.13
2022-11-19T17:51:19.482Z,98090.50
2022-11-19T17:53:46.465Z,98089.97
2022-11-19T17:56:29.736Z,98100.81
2022-11-19T17:58:56.561Z,98104.16
2022-11-19T18:01:23.283Z,98098.09
2022-11-19T18:03:49.799Z,98100.19
2022-11-19T18:06:17.497Z,98108.88
2022-11-19T18:08:44.155Z,98105.00
2022-11-19T18:11:20.135Z,98107.63
2022-11-19T18:13:49.730Z,98113.41
2022-11-19T18:16:21.843Z,98124.31
2022-11-19T18:18:48.500Z,98115.88
2022-11-19T18:21:20.616Z,98118.28
2022-11-19T18:23:48.605Z,98120.09
2022-11-19T18:26:17.763Z,98118.59
2022-11-19T18:28:47.771Z,98124.59
2022-11-19T18:31:19.019Z,98125.97
2022-11-19T18:33:47.944Z,98130.50
2022-11-19T18:36:15.457Z,98127.75
2022-11-19T18:38:42.232Z,98126.72
2022-11-19T18:41:13.273Z,98132.06
2022-11-19T18:44:03.037Z,98125.31
2022-11-19T18:46:29.439Z,98125.84
2022-11-19T18:48:56.258Z,98115.06
2022-11-19T18:51:23.302Z,98117.56
2022-11-19T18:53:49.845Z,98118.84
2022-11-19T18:56:18.217Z,98127.88
2022-11-19T18:58:44.919Z,98127.06
2022-11-19T19:01:11.628Z,98129.16
2022-11-19T19:03:38.044Z,98134.97
2022-11-19T19:06:06.562Z,98141.00
2022-11-19T19:08:34.124Z,98134.78
2022-11-19T19:11:19.427Z,98134.25
2022-11-19T19:13:46.184Z,98125.84
2022-11-19T19:16:13.040Z,98122.09
2022-11-19T19:18:39.958Z,98115.06
2022-11-19T19:21:17.457Z,98123.22
2022-11-19T19:23:44.130Z,98126.78
2022-11-19T19:26:12.470Z,98130.78
2022-11-19T19:28:39.830Z,98130.97
2022-11-19T19:31:07.222Z,98133.91
2022-11-19T19:33:34.017Z,98135.38
2022-11-19T19:36:03.825Z,98133.72
2022-11-19T19:38:30.355Z,98142.41
2022-11-19T19:41:07.789Z,98139.28
2022-11-19T19:43:34.406Z,98138.16
2022-11-19T19:46:09.205Z,98136.97
2022-11-19T19:48:36.627Z,98137.13
2022-11-19T19:51:03.820Z,98136.75
2022-11-19T19:53:30.489Z,98138.38
2022-11-19T19:56:05.021Z,98136.44
2022-11-19T19:58:31.983Z,98135.59
2022-11-19T20:01:10.167Z,98135.19
2022-11-19T20:03:37.477Z,98137.06
2022-11-19T20:06:06.540Z,98134.41
2022-11-19T20:08:35.292Z,98134.66
2022-11-19T20:11:07.579Z,98135.59
2022-11-19T20:13:36.691Z,98140.09
2022-11-19T20:16:06.954Z,98127.88
2022-11-19T20:18:36.723Z,98131.72
2022-11-19T20:21:09.033Z,98128.44
2022-11-19T20:23:35.894Z,98124.13
2022-11-19T20:26:06.076Z,98126.84
2022-11-19T20:28:32.698Z,98128.69
2022-11-19T20:31:07.438Z,98136.00
2022-11-19T20:33:34.391Z,98134.34
2022-11-19T20:36:01.316Z,98140.34
2022-11-19T20:38:27.985Z,98145.09
2022-11-19T20:41:00.010Z,98143.09
2022-11-19T20:44:02.910Z,98141.97
2022-11-19T20:46:29.364Z,98149.00
2022-11-19T20:48:55.877Z,98145.97
2022-11-19T20:51:22.314Z,98148.41
2022-11-19T20:53:49.591Z,98143.88
2022-11-19T20:56:16.019Z,98146.22
2022-11-19T20:58:44.041Z,98138.13
2022-11-19T21:01:10.817Z,98145.66
2022-11-19T21:03:37.789Z,98150.06
2022-11-19T21:06:07.166Z,98136.88
2022-11-19T21:08:35.459Z,98136.03
2022-11-19T21:11:05.187Z,98129.00
2022-11-19T21:13:32.430Z,98131.09
2022-11-19T21:15:59.568Z,98137.69
2022-11-19T21:18:26.797Z,98150.13
2022-11-19T21:20:59.695Z,98145.38
2022-11-19T21:23:26.272Z,98153.31
2022-11-19T21:25:52.705Z,98143.03
2022-11-19T21:28:19.179Z,98141.34
2022-11-19T21:30:52.068Z,98136.00
2022-11-19T21:33:18.544Z,98143.56
2022-11-19T21:35:45.126Z,98141.88
2022-11-19T21:38:12.467Z,98141.47
2022-11-19T21:40:39.704Z,98145.47
2022-11-19T21:43:07.620Z,98134.69
2022-11-19T21:45:37.395Z,98141.06
2022-11-19T21:48:04.054Z,98136.75
2022-11-19T21:50:30.520Z,98136.66
2022-11-19T21:52:56.993Z,98137.47
2022-11-19T21:55:23.489Z,98136.59
2022-11-19T21:57:50.093Z,98135.41
2022-11-19T22:00:17.206Z,98143.72
2022-11-19T22:02:44.014Z,98135.75
2022-11-19T22:05:10.488Z,98131.47
2022-11-19T22:07:37.039Z,98135.78
2022-11-19T22:10:03.944Z,98130.19
2022-11-19T22:12:31.221Z,98126.22
2022-11-19T22:14:57.709Z,98130.56
2022-11-19T22:17:26.641Z,98124.88
2022-11-19T22:19:55.272Z,98122.47
2022-11-19T22:22:21.698Z,98121.03
2022-11-19T22:24:48.076Z,98120.88
2022-11-19T22:27:14.643Z,98111.44
2022-11-19T22:29:41.308Z,98123.00
2022-11-19T22:32:07.901Z,98140.00
2022-11-19T22:34:34.449Z,98129.19
2022-11-19T22:37:00.982Z,98130.34
2022-11-19T22:39:27.411Z,98118.63
2022-11-19T22:41:54.250Z,98126.06
2022-11-19T22:44:20.903Z,98125.66
2022-11-19T22:46:47.397Z,98123.22
2022-11-19T22:49:13.776Z,98120.19
2022-11-19T22:51:40.188Z,98116.53
2022-11-19T22:54:08.705Z,98112.13
2022-11-19T22:56:35.146Z,98115.44
2022-11-19T22:59:01.669Z,98112.00
2022-11-19T23:01:33.629Z,98106.22
2022-11-19T23:04:08.119Z,98110.63
2022-11-19T23:06:36.032Z,98101.63
2022-11-19T23:09:04.417Z,98095.44
2022-11-19T23:11:49.555Z,98096.56
2022-11-19T23:14:17.573Z,98094.78
2022-11-19T23:16:44.959Z,98093.75
2022-11-19T23:19:13.058Z,98090.38
2022-11-19T23:21:40.750Z,98085.34
2022-11-19T23:24:08.045Z,98088.69
2022-11-19T23:26:34.501Z,98078.94
2022-11-19T23:29:01.653Z,98075.41
2022-11-19T23:31:34.291Z,98078.03
2022-11-19T23:34:01.014Z,98079.34
2022-11-19T23:36:30.124Z,98088.41
2022-11-19T23:38:57.808Z,98082.88
2022-11-19T23:41:24.831Z,98082.50
2022-11-19T23:43:54.157Z,98078.09
2022-11-19T23:46:29.422Z,98076.84
2022-11-19T23:48:57.687Z,98082.44
2022-11-19T23:51:29.841Z,98083.69
2022-11-19T23:53:57.021Z,98075.41
2022-11-19T23:56:24.878Z,98071.59
2022-11-19T23:58:51.520Z,98084.09
